sensor_id;sensor_type;location;lat;lon;timestamp;pressure;altitude;pressure_sealevel;temperature;humidity
71791;BME280;59638;52.126;5.434;2023-07-09T00:00:54;101814.53;;;19.66;100.00
71791;BME280;59638;52.126;5.434;2023-07-09T00:03:21;101805.03;;;19.64;100.00
71791;BME280;59638;52.126;5.434;2023-07-09T00:05:48;101810.56;;;19.62;100.00
71791;BME280;59638;52.126;5.434;2023-07-09T00:08:25;101809.22;;;19.58;100.00
71791;BME280;59638;52.126;5.434;2023-07-09T00:10:54;101806.53;;;19.50;100.00
71791;BME280;59638;52.126;5.434;2023-07-09T00:13:21;101810.94;;;19.43;100.00
71791;BME280;59638;52.126;5.434;2023-07-09T00:15:49;101802.91;;;19.35;100.00
71791;BME280;59638;52.126;5.434;2023-07-09T00:18:16;101810.94;;;19.26;100.00
71791;BME280;59638;52.126;5.434;2023-07-09T00:20:43;101822.00;;;19.23;100.00
71791;BME280;59638;52.126;5.434;2023-07-09T00:23:10;101823.03;;;19.22;100.00
71791;BME280;59638;52.126;5.434;2023-07-09T00:25:43;101826.19;;;19.18;100.00
71791;BME280;59638;52.126;5.434;2023-07-09T00:28:14;101824.72;;;19.15;100.00
71791;BME280;59638;52.126;5.434;2023-07-09T00:30:41;101827.06;;;19.10;100.00
71791;BME280;59638;52.126;5.434;2023-07-09T00:33:11;101827.38;;;19.07;100.00
71791;BME280;59638;52.126;5.434;2023-07-09T00:35:41;101822.19;;;19.06;100.00
71791;BME280;59638;52.126;5.434;2023-07-09T00:38:20;101836.78;;;19.03;100.00
71791;BME280;59638;52.126;5.434;2023-07-09T00:43:30;101826.38;;;19.00;100.00
71791;BME280;59638;52.126;5.434;2023-07-09T00:46:16;101833.25;;;18.94;100.00
71791;BME280;59638;52.126;5.434;2023-07-09T00:48:44;101836.09;;;18.93;100.00
71791;BME280;59638;52.126;5.434;2023-07-09T00:51:13;101832.25;;;18.87;100.00
71791;BME280;59638;52.126;5.434;2023-07-09T00:53:43;101851.50;;;18.83;100.00
71791;BME280;59638;52.126;5.434;2023-07-09T00:56:21;101849.13;;;18.80;100.00
71791;BME280;59638;52.126;5.434;2023-07-09T00:58:53;101848.47;;;18.78;100.00
71791;BME280;59638;52.126;5.434;2023-07-09T01:01:21;101845.16;;;18.76;100.00
71791;BME280;59638;52.126;5.434;2023-07-09T01:03:52;101848.47;;;18.78;100.00
71791;BME280;59638;52.126;5.434;2023-07-09T01:06:23;101847.81;;;18.76;100.00
71791;BME280;59638;52.126;5.434;2023-07-09T01:08:56;101847.13;;;18.73;100.00
71791;BME280;59638;52.126;5.434;2023-07-09T01:11:22;101845.47;;;18.72;100.00
71791;BME280;59638;52.126;5.434;2023-07-09T01:14:01;101844.81;;;18.70;100.00
71791;BME280;59638;52.126;5.434;2023-07-09T01:16:30;101840.47;;;18.69;100.00
71791;BME280;59638;52.126;5.434;2023-07-09T01:18:58;101838.75;;;18.68;100.00
71791;BME280;59638;52.126;5.434;2023-07-09T01:21:24;101832.06;;;18.64;100.00
71791;BME280;59638;52.126;5.434;2023-07-09T01:23:53;101831.88;;;18.66;100.00
71791;BME280;59638;52.126;5.434;2023-07-09T01:26:23;101834.41;;;18.67;100.00
71791;BME280;59638;52.126;5.434;2023-07-09T01:28:52;101833.72;;;18.65;100.00
71791;BME280;59638;52.126;5.434;2023-07-09T01:31:19;101837.72;;;18.61;100.00
71791;BME280;59638;52.126;5.434;2023-07-09T01:33:47;101837.56;;;18.55;100.00
71791;BME280;59638;52.126;5.434;2023-07-09T01:36:16;101840.75;;;18.50;100.00
71791;BME280;59638;52.126;5.434;2023-07-09T01:38:44;101839.38;;;18.46;100.00
71791;BME280;59638;52.126;5.434;2023-07-09T01:41:10;101834.38;;;18.43;100.00
71791;BME280;59638;52.126;5.434;2023-07-09T01:43:41;101839.72;;;18.43;100.00
71791;BME280;59638;52.126;5.434;2023-07-09T01:46:09;101835.38;;;18.42;100.00
71791;BME280;59638;52.126;5.434;2023-07-09T01:48:36;101851.41;;;18.42;100.00
71791;BME280;59638;52.126;5.434;2023-07-09T01:51:12;101850.44;;;18.43;100.00
71791;BME280;59638;52.126;5.434;2023-07-09T01:53:40;101848.72;;;18.42;100.00
71791;BME280;59638;52.126;5.434;2023-07-09T01:56:07;101856.91;;;18.40;100.00
71791;BME280;59638;52.126;5.434;2023-07-09T01:58:34;101853.59;;;18.38;100.00
71791;BME280;59638;52.126;5.434;2023-07-09T02:01:01;101854.59;;;18.37;100.00
71791;BME280;59638;52.126;5.434;2023-07-09T02:03:27;101860.09;;;18.36;100.00
71791;BME280;59638;52.126;5.434;2023-07-09T02:05:54;101858.41;;;18.35;100.00
71791;BME280;59638;52.126;5.434;2023-07-09T02:08:21;101856.44;;;18.37;100.00
71791;BME280;59638;52.126;5.434;2023-07-09T02:10:48;101852.41;;;18.41;100.00
71791;BME280;59638;52.126;5.434;2023-07-09T02:13:15;101855.78;;;18.43;100.00
71791;BME280;59638;52.126;5.434;2023-07-09T02:15:43;101857.75;;;18.41;100.00
71791;BME280;59638;52.126;5.434;2023-07-09T02:18:11;101846.22;;;18.40;100.00
71791;BME280;59638;52.126;5.434;2023-07-09T02:20:38;101854.75;;;18.36;100.00
71791;BME280;59638;52.126;5.434;2023-07-09T02:23:07;101856.25;;;18.30;100.00
71791;BME280;59638;52.126;5.434;2023-07-09T02:25:34;101854.56;;;18.29;100.00
71791;BME280;59638;52.126;5.434;2023-07-09T02:28:01;101853.72;;;18.29;100.00
71791;BME280;59638;52.126;5.434;2023-07-09T02:30:27;101845.38;;;18.24;100.00
71791;BME280;59638;52.126;5.434;2023-07-09T02:32:54;101843.19;;;18.19;100.00
71791;BME280;59638;52.126;5.434;2023-07-09T02:35:21;101844.34;;;18.16;100.00
71791;BME280;59638;52.126;5.434;2023-07-09T02:37:48;101843.00;;;18.12;100.00
71791;BME280;59638;52.126;5.434;2023-07-09T02:40:16;101845.66;;;18.12;100.00
71791;BME280;59638;52.126;5.434;2023-07-09T02:42:42;101841.50;;;18.10;100.00
71791;BME280;59638;52.126;5.434;2023-07-09T02:45:09;101850.66;;;18.07;100.00
71791;BME280;59638;52.126;5.434;2023-07-09T02:47:36;101850.16;;;18.04;100.00
71791;BME280;59638;52.126;5.434;2023-07-09T02:50:03;101851.16;;;18.03;100.00
71791;BME280;59638;52.126;5.434;2023-07-09T02:52:29;101852.97;;;18.02;100.00
71791;BME280;59638;52.126;5.434;2023-07-09T02:54:56;101845.97;;;18.01;100.00
71791;BME280;59638;52.126;5.434;2023-07-09T02:57:22;101847.13;;;17.99;100.00
71791;BME280;59638;52.126;5.434;2023-07-09T02:59:49;101849.97;;;17.97;100.00
71791;BME280;59638;52.126;5.434;2023-07-09T03:02:15;101853.66;;;17.96;100.00
71791;BME280;59638;52.126;5.434;2023-07-09T03:04:42;101852.28;;;17.92;100.00
71791;BME280;59638;52.126;5.434;2023-07-09T03:07:08;101851.44;;;17.91;100.00
71791;BME280;59638;52.126;5.434;2023-07-09T03:09:35;101848.31;;;17.96;100.00
71791;BME280;59638;52.126;5.434;2023-07-09T03:12:02;101857.47;;;18.02;100.00
71791;BME280;59638;52.126;5.434;2023-07-09T03:14:28;101854.66;;;18.03;100.00
71791;BME280;59638;52.126;5.434;2023-07-09T03:16:55;101858.66;;;17.99;100.00
71791;BME280;59638;52.126;5.434;2023-07-09T03:19:22;101860.66;;;17.97;100.00
71791;BME280;59638;52.126;5.434;2023-07-09T03:21:48;101859.13;;;17.94;100.00
71791;BME280;59638;52.126;5.434;2023-07-09T03:24:15;101858.47;;;17.92;100.00
71791;BME280;59638;52.126;5.434;2023-07-09T03:26:46;101854.28;;;17.90;100.00
71791;BME280;59638;52.126;5.434;2023-07-09T03:29:13;101857.25;;;17.87;100.00
71791;BME280;59638;52.126;5.434;2023-07-09T03:31:40;101857.59;;;17.84;100.00
71791;BME280;59638;52.126;5.434;2023-07-09T03:34:06;101864.06;;;17.81;100.00
71791;BME280;59638;52.126;5.434;2023-07-09T03:36:33;101860.56;;;17.81;100.00
71791;BME280;59638;52.126;5.434;2023-07-09T03:38:59;101864.06;;;17.81;100.00
71791;BME280;59638;52.126;5.434;2023-07-09T03:41:26;101862.25;;;17.82;100.00
71791;BME280;59638;52.126;5.434;2023-07-09T03:43:52;101860.28;;;17.84;100.00
71791;BME280;59638;52.126;5.434;2023-07-09T03:46:19;101859.94;;;17.87;100.00
71791;BME280;59638;52.126;5.434;2023-07-09T03:48:46;101865.81;;;17.90;100.00
71791;BME280;59638;52.126;5.434;2023-07-09T03:51:13;101859.47;;;17.91;100.00
71791;BME280;59638;52.126;5.434;2023-07-09T03:53:40;101863.47;;;17.96;100.00
71791;BME280;59638;52.126;5.434;2023-07-09T03:56:07;101864.47;;;17.94;100.00
71791;BME280;59638;52.126;5.434;2023-07-09T03:58:33;101865.47;;;17.93;100.00
71791;BME280;59638;52.126;5.434;2023-07-09T04:01:00;101867.13;;;17.94;100.00
71791;BME280;59638;52.126;5.434;2023-07-09T04:03:26;101865.47;;;17.93;100.00
71791;BME280;59638;52.126;5.434;2023-07-09T04:05:53;101877.00;;;17.94;100.00
71791;BME280;59638;52.126;5.434;2023-07-09T04:08:19;101866.31;;;17.94;100.00
71791;BME280;59638;52.126;5.434;2023-07-09T04:10:46;101872.00;;;17.99;100.00
71791;BME280;59638;52.126;5.434;2023-07-09T04:13:12;101870.69;;;18.03;100.00
71791;BME280;59638;52.126;5.434;2023-07-09T04:15:39;101873.19;;;18.05;100.00
71791;BME280;59638;52.126;5.434;2023-07-09T04:18:06;101870.19;;;18.08;100.00
71791;BME280;59638;52.126;5.434;2023-07-09T04:20:32;101873.56;;;18.10;100.00
71791;BME280;59638;52.126;5.434;2023-07-09T04:23:01;101878.09;;;18.17;100.00
71791;BME280;59638;52.126;5.434;2023-07-09T04:25:28;101868.59;;;18.23;100.00
71791;BME280;59638;52.126;5.434;2023-07-09T04:27:54;101871.94;;;18.33;100.00
71791;BME280;59638;52.126;5.434;2023-07-09T04:30:21;101883.16;;;18.37;100.00
71791;BME280;59638;52.126;5.434;2023-07-09T04:32:47;101873.78;;;18.41;100.00
71791;BME280;59638;52.126;5.434;2023-07-09T04:35:14;101864.47;;;18.45;100.00
71791;BME280;59638;52.126;5.434;2023-07-09T04:37:41;101868.81;;;18.54;100.00
71791;BME280;59638;52.126;5.434;2023-07-09T04:40:09;101867.66;;;18.65;100.00
71791;BME280;59638;52.126;5.434;2023-07-09T04:42:39;101865.84;;;18.73;100.00
71791;BME280;59638;52.126;5.434;2023-07-09T04:45:08;101868.22;;;18.77;100.00
71791;BME280;59638;52.126;5.434;2023-07-09T04:47:35;101865.69;;;18.75;100.00
71791;BME280;59638;52.126;5.434;2023-07-09T04:50:04;101871.53;;;18.79;100.00
71791;BME280;59638;52.126;5.434;2023-07-09T04:52:30;101874.56;;;18.84;100.00
71791;BME280;59638;52.126;5.434;2023-07-09T04:54:57;101873.91;;;18.90;100.00
71791;BME280;59638;52.126;5.434;2023-07-09T04:57:24;101866.03;;;18.96;100.00
71791;BME280;59638;52.126;5.434;2023-07-09T04:59:51;101866.88;;;19.05;100.00
71791;BME280;59638;52.126;5.434;2023-07-09T05:02:18;101869.53;;;19.13;100.00
71791;BME280;59638;52.126;5.434;2023-07-09T05:04:44;101872.22;;;19.21;100.00
71791;BME280;59638;52.126;5.434;2023-07-09T05:07:11;101863.16;;;19.31;100.00
71791;BME280;59638;52.126;5.434;2023-07-09T05:09:37;101856.13;;;19.38;100.00
71791;BME280;59638;52.126;5.434;2023-07-09T05:12:04;101860.09;;;19.50;100.00
71791;BME280;59638;52.126;5.434;2023-07-09T05:14:31;101853.41;;;19.62;100.00
71791;BME280;59638;52.126;5.434;2023-07-09T05:16:57;101855.41;;;19.68;100.00
71791;BME280;59638;52.126;5.434;2023-07-09T05:19:24;101857.25;;;19.68;100.00
71791;BME280;59638;52.126;5.434;2023-07-09T05:21:50;101862.75;;;19.74;100.00
71791;BME280;59638;52.126;5.434;2023-07-09T05:24:17;101861.34;;;19.87;100.00
71791;BME280;59638;52.126;5.434;2023-07-09T05:26:43;101858.94;;;20.00;100.00
71791;BME280;59638;52.126;5.434;2023-07-09T05:29:10;101861.03;;;20.13;100.00
71791;BME280;59638;52.126;5.434;2023-07-09T05:31:36;101860.84;;;20.22;100.00
71791;BME280;59638;52.126;5.434;2023-07-09T05:34:03;101862.78;;;20.36;100.00
71791;BME280;59638;52.126;5.434;2023-07-09T05:36:30;101860.31;;;20.58;100.00
71791;BME280;59638;52.126;5.434;2023-07-09T05:38:56;101854.84;;;20.74;100.00
71791;BME280;59638;52.126;5.434;2023-07-09T05:41:23;101859.03;;;20.91;100.00
71791;BME280;59638;52.126;5.434;2023-07-09T05:43:51;101866.94;;;21.08;100.00
71791;BME280;59638;52.126;5.434;2023-07-09T05:46:19;101861.41;;;21.24;100.00
71791;BME280;59638;52.126;5.434;2023-07-09T05:48:46;101864.63;;;21.42;100.00
71791;BME280;59638;52.126;5.434;2023-07-09T05:51:12;101869.81;;;21.59;100.00
71791;BME280;59638;52.126;5.434;2023-07-09T05:53:39;101872.69;;;21.72;100.00
71791;BME280;59638;52.126;5.434;2023-07-09T05:56:06;101874.25;;;21.81;100.00
71791;BME280;59638;52.126;5.434;2023-07-09T05:58:32;101877.75;;;21.96;100.00
71791;BME280;59638;52.126;5.434;2023-07-09T06:00:59;101872.47;;;22.03;100.00
71791;BME280;59638;52.126;5.434;2023-07-09T06:03:26;101875.91;;;22.12;99.76
71791;BME280;59638;52.126;5.434;2023-07-09T06:05:54;101887.28;;;22.29;99.97
71791;BME280;59638;52.126;5.434;2023-07-09T06:08:21;101881.41;;;22.40;98.05
71791;BME280;59638;52.126;5.434;2023-07-09T06:10:58;101875.44;;;22.44;98.38
71791;BME280;59638;52.126;5.434;2023-07-09T06:13:26;101888.41;;;22.56;98.00
71791;BME280;59638;52.126;5.434;2023-07-09T06:15:54;101883.91;;;22.63;96.23
71791;BME280;59638;52.126;5.434;2023-07-09T06:18:21;101882.84;;;22.78;96.34
71791;BME280;59638;52.126;5.434;2023-07-09T06:20:53;101889.66;;;22.96;94.56
71791;BME280;59638;52.126;5.434;2023-07-09T06:23:20;101884.88;;;23.19;93.60
71791;BME280;59638;52.126;5.434;2023-07-09T06:25:47;101884.28;;;23.24;93.65
71791;BME280;59638;52.126;5.434;2023-07-09T06:28:15;101887.38;;;23.21;95.31
71791;BME280;59638;52.126;5.434;2023-07-09T06:30:43;101888.84;;;23.51;92.04
71791;BME280;59638;52.126;5.434;2023-07-09T06:33:11;101887.56;;;23.82;91.60
71791;BME280;59638;52.126;5.434;2023-07-09T06:35:38;101892.69;;;24.05;89.67
71791;BME280;59638;52.126;5.434;2023-07-09T06:38:06;101889.81;;;24.20;89.65
71791;BME280;59638;52.126;5.434;2023-07-09T06:40:32;101889.31;;;24.44;88.25
71791;BME280;59638;52.126;5.434;2023-07-09T06:42:59;101894.53;;;24.59;87.12
71791;BME280;59638;52.126;5.434;2023-07-09T06:45:25;101892.25;;;24.76;86.18
71791;BME280;59638;52.126;5.434;2023-07-09T06:47:52;101893.13;;;24.96;85.77
71791;BME280;59638;52.126;5.434;2023-07-09T06:50:18;101900.00;;;25.12;85.37
71791;BME280;59638;52.126;5.434;2023-07-09T06:52:45;101898.13;;;25.26;84.44
71791;BME280;59638;52.126;5.434;2023-07-09T06:55:11;101902.69;;;25.45;84.65
71791;BME280;59638;52.126;5.434;2023-07-09T06:57:38;101894.09;;;25.61;85.31
71791;BME280;59638;52.126;5.434;2023-07-09T07:00:05;101896.41;;;25.78;84.50
71791;BME280;59638;52.126;5.434;2023-07-09T07:02:33;101897.13;;;26.05;83.01
71791;BME280;59638;52.126;5.434;2023-07-09T07:04:59;101892.03;;;26.28;81.08
71791;BME280;59638;52.126;5.434;2023-07-09T07:07:26;101897.59;;;26.40;80.93
71791;BME280;59638;52.126;5.434;2023-07-09T07:09:53;101897.53;;;26.53;82.39
71791;BME280;59638;52.126;5.434;2023-07-09T07:12:29;101894.38;;;26.88;80.67
71791;BME280;59638;52.126;5.434;2023-07-09T07:14:56;101889.69;;;27.26;77.57
71791;BME280;59638;52.126;5.434;2023-07-09T07:17:22;101887.81;;;27.45;80.66
71791;BME280;59638;52.126;5.434;2023-07-09T07:19:50;101897.16;;;27.74;75.82
71791;BME280;59638;52.126;5.434;2023-07-09T07:22:16;101895.03;;;27.76;74.35
71791;BME280;59638;52.126;5.434;2023-07-09T07:24:43;101888.63;;;27.89;73.68
71791;BME280;59638;52.126;5.434;2023-07-09T07:27:09;101887.06;;;28.11;73.30
71791;BME280;59638;52.126;5.434;2023-07-09T07:29:36;101883.44;;;28.36;71.24
71791;BME280;59638;52.126;5.434;2023-07-09T07:32:02;101881.75;;;28.65;71.39
71791;BME280;59638;52.126;5.434;2023-07-09T07:34:30;101892.25;;;29.38;70.67
71791;BME280;59638;52.126;5.434;2023-07-09T07:36:56;101886.31;;;30.45;64.39
71791;BME280;59638;52.126;5.434;2023-07-09T07:39:23;101884.47;;;30.96;61.98
71791;BME280;59638;52.126;5.434;2023-07-09T07:41:49;101888.16;;;31.40;61.93
71791;BME280;59638;52.126;5.434;2023-07-09T07:44:17;101888.22;;;32.06;58.70
71791;BME280;59638;52.126;5.434;2023-07-09T07:46:44;101889.84;;;32.56;56.07
71791;BME280;59638;52.126;5.434;2023-07-09T07:49:11;101887.75;;;32.68;54.80
71791;BME280;59638;52.126;5.434;2023-07-09T07:51:38;101891.72;;;32.51;53.92
71791;BME280;59638;52.126;5.434;2023-07-09T07:54:05;101893.19;;;32.63;53.98
71791;BME280;59638;52.126;5.434;2023-07-09T07:56:32;101885.06;;;32.73;57.35
71791;BME280;59638;52.126;5.434;2023-07-09T07:58:59;101884.66;;;33.24;53.76
71791;BME280;59638;52.126;5.434;2023-07-09T08:01:25;101888.47;;;33.23;57.10
71791;BME280;59638;52.126;5.434;2023-07-09T08:03:53;101884.91;;;33.70;51.29
71791;BME280;59638;52.126;5.434;2023-07-09T08:06:20;101886.25;;;33.62;54.46
71791;BME280;59638;52.126;5.434;2023-07-09T08:08:47;101886.44;;;34.08;48.39
71791;BME280;59638;52.126;5.434;2023-07-09T08:11:14;101891.78;;;33.77;49.42
71791;BME280;59638;52.126;5.434;2023-07-09T08:13:41;101883.28;;;33.26;53.67
71791;BME280;59638;52.126;5.434;2023-07-09T08:16:07;101891.75;;;32.88;58.08
71791;BME280;59638;52.126;5.434;2023-07-09T08:18:34;101891.88;;;33.40;52.32
71791;BME280;59638;52.126;5.434;2023-07-09T08:21:01;101886.94;;;34.00;50.95
71791;BME280;59638;52.126;5.434;2023-07-09T08:23:28;101887.59;;;34.38;47.60
71791;BME280;59638;52.126;5.434;2023-07-09T08:25:55;101878.31;;;34.89;47.85
71791;BME280;59638;52.126;5.434;2023-07-09T08:28:21;101885.72;;;35.04;46.51
71791;BME280;59638;52.126;5.434;2023-07-09T08:30:48;101879.97;;;34.75;47.60
71791;BME280;59638;52.126;5.434;2023-07-09T08:33:14;101891.22;;;34.74;46.71
71791;BME280;59638;52.126;5.434;2023-07-09T08:35:43;101885.44;;;34.50;47.10
71791;BME280;59638;52.126;5.434;2023-07-09T08:38:10;101890.94;;;34.65;47.89
71791;BME280;59638;52.126;5.434;2023-07-09T08:40:40;101885.38;;;34.29;52.88
71791;BME280;59638;52.126;5.434;2023-07-09T08:43:20;101883.19;;;34.21;52.98
71791;BME280;59638;52.126;5.434;2023-07-09T08:46:00;101875.56;;;34.49;48.07
71791;BME280;59638;52.126;5.434;2023-07-09T08:48:31;101879.41;;;34.53;49.87
71791;BME280;59638;52.126;5.434;2023-07-09T08:51:13;101873.38;;;34.66;46.86
71791;BME280;59638;52.126;5.434;2023-07-09T08:53:49;101872.28;;;35.03;45.87
71791;BME280;59638;52.126;5.434;2023-07-09T08:56:17;101868.47;;;34.94;53.21
71791;BME280;59638;52.126;5.434;2023-07-09T08:58:43;101866.22;;;35.11;48.97
71791;BME280;59638;52.126;5.434;2023-07-09T09:01:21;101864.31;;;34.66;52.21
71791;BME280;59638;52.126;5.434;2023-07-09T09:03:51;101866.53;;;34.69;48.22
71791;BME280;59638;52.126;5.434;2023-07-09T09:06:27;101862.56;;;35.41;48.61
71791;BME280;59638;52.126;5.434;2023-07-09T09:09:13;101866.78;;;34.93;45.95
71791;BME280;59638;52.126;5.434;2023-07-09T09:11:45;101864.88;;;34.63;43.73
71791;BME280;59638;52.126;5.434;2023-07-09T09:14:36;101860.78;;;34.80;47.02
71791;BME280;59638;52.126;5.434;2023-07-09T09:17:11;101862.91;;;35.19;42.17
71791;BME280;59638;52.126;5.434;2023-07-09T09:19:54;101863.47;;;35.21;43.24
71791;BME280;59638;52.126;5.434;2023-07-09T09:22:24;101865.13;;;35.12;43.83
71791;BME280;59638;52.126;5.434;2023-07-09T09:24:59;101857.94;;;35.31;45.38
71791;BME280;59638;52.126;5.434;2023-07-09T09:27:29;101855.97;;;35.52;41.04
71791;BME280;59638;52.126;5.434;2023-07-09T09:29:56;101855.22;;;35.26;49.79
71791;BME280;59638;52.126;5.434;2023-07-09T09:32:26;101857.97;;;35.26;44.62
71791;BME280;59638;52.126;5.434;2023-07-09T09:34:53;101857.69;;;35.28;44.15
71791;BME280;59638;52.126;5.434;2023-07-09T09:37:28;101856.88;;;35.17;45.57
71791;BME280;59638;52.126;5.434;2023-07-09T09:39:56;101850.84;;;35.20;42.15
71791;BME280;59638;52.126;5.434;2023-07-09T09:42:43;101843.16;;;35.22;41.57
71791;BME280;59638;52.126;5.434;2023-07-09T09:45:15;101851.88;;;35.34;43.12
71791;BME280;59638;52.126;5.434;2023-07-09T09:47:46;101846.28;;;35.65;42.95
71791;BME280;59638;52.126;5.434;2023-07-09T09:50:17;101847.47;;;35.49;45.52
71791;BME280;59638;52.126;5.434;2023-07-09T09:52:46;101840.31;;;35.53;42.12
71791;BME280;59638;52.126;5.434;2023-07-09T09:55:19;101840.44;;;35.82;42.68
71791;BME280;59638;52.126;5.434;2023-07-09T09:57:50;101836.84;;;35.86;41.76
71791;BME280;59638;52.126;5.434;2023-07-09T10:00:21;101831.41;;;35.76;41.40
71791;BME280;59638;52.126;5.434;2023-07-09T10:02:48;101843.78;;;36.23;46.03
71791;BME280;59638;52.126;5.434;2023-07-09T10:05:16;101832.31;;;36.50;39.89
71791;BME280;59638;52.126;5.434;2023-07-09T10:08:15;101828.88;;;36.63;40.03
71791;BME280;59638;52.126;5.434;2023-07-09T10:10:39;101827.31;;;36.18;40.17
71791;BME280;59638;52.126;5.434;2023-07-09T10:13:29;101821.13;;;36.36;39.24
71791;BME280;59638;52.126;5.434;2023-07-09T10:16:14;101823.03;;;36.02;39.94
71791;BME280;59638;52.126;5.434;2023-07-09T10:21:57;101813.00;;;36.84;36.74
71791;BME280;59638;52.126;5.434;2023-07-09T10:33:09;101810.72;;;37.44;36.59
71791;BME280;59638;52.126;5.434;2023-07-09T10:35:52;101810.28;;;37.32;36.99
71791;BME280;59638;52.126;5.434;2023-07-09T10:38:35;101810.13;;;37.47;40.32
71791;BME280;59638;52.126;5.434;2023-07-09T10:41:09;101813.84;;;37.38;44.29
71791;BME280;59638;52.126;5.434;2023-07-09T10:43:59;101810.38;;;37.89;43.45
71791;BME280;59638;52.126;5.434;2023-07-09T10:46:31;101814.22;;;37.26;41.31
71791;BME280;59638;52.126;5.434;2023-07-09T10:49:02;101812.69;;;36.62;45.64
71791;BME280;59638;52.126;5.434;2023-07-09T10:51:37;101815.47;;;36.86;43.16
71791;BME280;59638;52.126;5.434;2023-07-09T10:54:22;101809.91;;;35.93;45.23
71791;BME280;59638;52.126;5.434;2023-07-09T10:56:56;101810.16;;;36.31;45.22
71791;BME280;59638;52.126;5.434;2023-07-09T10:59:31;101813.22;;;35.85;48.20
71791;BME280;59638;52.126;5.434;2023-07-09T11:02:19;101810.41;;;35.41;47.56
71791;BME280;59638;52.126;5.434;2023-07-09T11:04:51;101817.19;;;35.59;44.56
71791;BME280;59638;52.126;5.434;2023-07-09T11:07:27;101806.50;;;36.46;46.88
71791;BME280;59638;52.126;5.434;2023-07-09T11:09:57;101821.03;;;35.63;45.78
71791;BME280;59638;52.126;5.434;2023-07-09T11:12:33;101821.63;;;33.56;54.02
71791;BME280;59638;52.126;5.434;2023-07-09T11:15:10;101820.31;;;32.20;55.61
71791;BME280;59638;52.126;5.434;2023-07-09T11:17:40;101818.50;;;31.33;61.51
71791;BME280;59638;52.126;5.434;2023-07-09T11:20:33;101811.13;;;30.78;62.65
71791;BME280;59638;52.126;5.434;2023-07-09T11:23:18;101807.53;;;30.44;63.26
71791;BME280;59638;52.126;5.434;2023-07-09T11:25:47;101804.09;;;30.31;65.39
71791;BME280;59638;52.126;5.434;2023-07-09T11:28:14;101801.03;;;30.45;61.75
71791;BME280;59638;52.126;5.434;2023-07-09T11:30:53;101793.22;;;31.43;62.47
71791;BME280;59638;52.126;5.434;2023-07-09T11:33:29;101784.34;;;32.01;61.37
71791;BME280;59638;52.126;5.434;2023-07-09T11:36:13;101784.81;;;31.44;61.84
71791;BME280;59638;52.126;5.434;2023-07-09T11:38:44;101787.25;;;31.67;62.26
71791;BME280;59638;52.126;5.434;2023-07-09T11:44:12;101804.91;;;31.82;58.48
71791;BME280;59638;52.126;5.434;2023-07-09T11:46:52;101800.75;;;32.01;63.83
71791;BME280;59638;52.126;5.434;2023-07-09T11:49:23;101809.00;;;31.79;60.57
71791;BME280;59638;52.126;5.434;2023-07-09T11:51:55;101804.66;;;31.39;62.71
71791;BME280;59638;52.126;5.434;2023-07-09T11:54:25;101805.47;;;31.01;63.71
71791;BME280;59638;52.126;5.434;2023-07-09T11:56:56;101805.81;;;30.88;63.98
71791;BME280;59638;52.126;5.434;2023-07-09T11:59:23;101804.84;;;31.33;61.67
71791;BME280;59638;52.126;5.434;2023-07-09T12:01:50;101818.25;;;31.78;62.41
71791;BME280;59638;52.126;5.434;2023-07-09T12:04:29;101806.50;;;32.32;58.40
71791;BME280;59638;52.126;5.434;2023-07-09T12:06:59;101813.59;;;32.60;64.80
71791;BME280;59638;52.126;5.434;2023-07-09T12:09:32;101820.16;;;31.78;61.45
71791;BME280;59638;52.126;5.434;2023-07-09T12:11:58;101828.81;;;30.92;64.90
71791;BME280;59638;52.126;5.434;2023-07-09T12:14:25;101836.94;;;30.42;61.17
71791;BME280;59638;52.126;5.434;2023-07-09T12:16:53;101839.66;;;30.25;57.23
71791;BME280;59638;52.126;5.434;2023-07-09T12:19:23;101841.59;;;30.13;58.59
71791;BME280;59638;52.126;5.434;2023-07-09T12:21:53;101840.75;;;30.41;58.96
71791;BME280;59638;52.126;5.434;2023-07-09T12:24:22;101848.84;;;31.20;57.83
71791;BME280;59638;52.126;5.434;2023-07-09T12:26:52;101843.56;;;31.74;62.56
71791;BME280;59638;52.126;5.434;2023-07-09T12:29:20;101836.47;;;30.95;58.04
71791;BME280;59638;52.126;5.434;2023-07-09T12:31:50;101848.81;;;30.36;59.34
71791;BME280;59638;52.126;5.434;2023-07-09T12:34:16;101846.56;;;30.04;59.60
71791;BME280;59638;52.126;5.434;2023-07-09T12:36:46;101838.88;;;29.72;59.82
71791;BME280;59638;52.126;5.434;2023-07-09T12:39:19;101826.38;;;30.45;59.60
71791;BME280;59638;52.126;5.434;2023-07-09T12:41:54;101819.44;;;31.65;55.54
71791;BME280;59638;52.126;5.434;2023-07-09T12:44:22;101820.84;;;31.46;57.25
71791;BME280;59638;52.126;5.434;2023-07-09T12:46:50;101830.75;;;31.52;55.15
71791;BME280;59638;52.126;5.434;2023-07-09T12:49:23;101839.53;;;30.65;57.80
71791;BME280;59638;52.126;5.434;2023-07-09T12:51:50;101833.03;;;30.09;58.24
71791;BME280;59638;52.126;5.434;2023-07-09T12:54:19;101847.75;;;29.68;60.46
71791;BME280;59638;52.126;5.434;2023-07-09T12:56:51;101839.03;;;29.31;59.74
71791;BME280;59638;52.126;5.434;2023-07-09T12:59:36;101833.97;;;29.11;61.39
71791;BME280;59638;52.126;5.434;2023-07-09T13:02:21;101835.72;;;29.40;62.95
71791;BME280;59638;52.126;5.434;2023-07-09T13:04:49;101826.00;;;29.68;60.26
71791;BME280;59638;52.126;5.434;2023-07-09T13:09:54;101835.13;;;29.90;60.47
71791;BME280;59638;52.126;5.434;2023-07-09T13:12:28;101841.69;;;29.77;57.59
71791;BME280;59638;52.126;5.434;2023-07-09T13:14:55;101829.50;;;29.80;59.35
71791;BME280;59638;52.126;5.434;2023-07-09T13:17:32;101835.28;;;29.84;60.39